Time;durP1;ratioP1;P1;durP2;ratioP2;P2;SDS_P1;SDS_P2;PMS_P1;PMS_P2;Temp;Humidity;BMP_temperature;BMP_pressure;BME280_temperature;BME280_humidity;BME280_pressure;Samples;Min_cycle;Max_cycle;Signal;HPM_P1;HPM_P2
2021/11/24 00:02:16;;;;;;;24.40;16.27;;;1.80;78.30;;;-0.29;83.53;96842.16;4992138;28;20045;-64
2021/11/24 00:04:42;;;;;;;22.63;15.65;;;1.80;78.40;;;-0.31;83.66;96834.50;4976706;28;20079;-64
2021/11/24 00:07:07;;;;;;;23.35;15.77;;;1.70;78.40;;;-0.32;83.57;96834.63;4988388;28;20402;-64
2021/11/24 00:09:33;;;;;;;21.95;14.95;;;1.80;78.50;;;-0.32;83.41;96837.19;5003109;28;20092;-64
2021/11/24 00:11:59;;;;;;;25.85;15.77;;;1.70;78.40;;;-0.35;83.94;96827.06;5010478;28;20042;-64
2021/11/24 00:14:25;;;;;;;23.10;14.60;;;1.60;78.10;;;-0.35;83.41;96837.41;4981896;28;20100;-65
2021/11/24 00:16:50;;;;;;;22.13;14.63;;;1.70;78.20;;;-0.37;83.57;96834.09;4975660;28;20041;-65
2021/11/24 00:19:16;;;;;;;23.45;15.27;;;1.60;78.10;;;-0.40;83.30;96835.16;5010293;28;20468;-65
2021/11/24 00:21:42;;;;;;;20.98;15.05;;;1.60;78.10;;;-0.42;83.54;96831.84;5026858;28;20513;-66
2021/11/24 00:24:07;;;;;;;22.33;14.57;;;1.60;78.20;;;-0.45;83.85;96826.88;5007889;28;20473;-65
2021/11/24 00:26:33;;;;;;;23.13;15.77;;;1.60;78.40;;;-0.48;84.12;96823.66;5007751;28;20417;-65
2021/11/24 00:28:59;;;;;;;23.52;15.68;;;1.60;78.60;;;-0.50;84.29;96822.94;4995533;28;20045;-65
2021/11/24 00:31:27;;;;;;;23.02;15.93;;;1.60;78.80;;;-0.51;84.41;96821.28;4988459;28;20070;-65
2021/11/24 00:33:53;;;;;;;25.52;15.80;;;1.60;79.00;;;-0.55;84.23;96817.25;4984797;28;20117;-65
2021/11/24 00:36:19;;;;;;;25.55;16.50;;;1.50;79.10;;;-0.54;84.30;96816.31;5007528;28;20114;-65
2021/11/24 00:38:45;;;;;;;24.83;17.08;;;1.60;79.10;;;-0.54;84.32;96816.31;5006797;28;20038;-65
2021/11/24 00:41:10;;;;;;;25.27;16.42;;;1.50;79.30;;;-0.54;84.88;96817.16;5010508;28;20558;-65
2021/11/24 00:43:36;;;;;;;25.75;16.73;;;1.50;79.30;;;-0.56;84.42;96810.44;5009748;28;20045;-65
2021/11/24 00:46:02;;;;;;;23.65;16.27;;;1.50;79.30;;;-0.55;84.83;96809.50;5010157;28;20603;-65
2021/11/24 00:48:28;;;;;;;23.23;16.30;;;1.60;79.20;;;-0.57;84.77;96806.19;4990296;28;20057;-65
2021/11/24 00:50:54;;;;;;;24.48;15.98;;;1.50;79.30;;;-0.58;84.49;96805.38;5002918;28;20504;-65
2021/11/24 00:53:19;;;;;;;25.27;16.98;;;1.50;79.30;;;-0.59;84.74;96803.72;4995692;28;20635;-65
2021/11/24 00:55:45;;;;;;;26.17;17.25;;;1.50;79.30;;;-0.60;85.15;96801.22;5010584;28;20437;-65
2021/11/24 00:58:11;;;;;;;24.38;16.42;;;1.40;79.40;;;-0.62;85.08;96794.41;4977556;28;20528;-65
2021/11/24 01:00:36;;;;;;;27.33;16.88;;;1.50;79.40;;;-0.62;84.96;96794.41;4977342;28;20045;-65
2021/11/24 01:03:02;;;;;;;24.40;16.25;;;1.40;79.40;;;-0.61;85.06;96795.25;4991741;28;20073;-65
2021/11/24 01:05:29;;;;;;;24.65;16.27;;;1.50;79.40;;;-0.64;85.37;96791.13;5009612;28;20057;-65
2021/11/24 01:07:55;;;;;;;26.63;16.85;;;1.50;79.30;;;-0.63;85.13;96797.94;4984251;28;20429;-65
2021/11/24 01:10:20;;;;;;;24.08;16.30;;;1.50;79.30;;;-0.64;84.84;96796.28;4998422;28;20030;-65
2021/11/24 01:12:47;;;;;;;24.20;16.10;;;1.40;79.30;;;-0.65;85.28;96797.22;4993212;28;20073;-65
2021/11/24 01:15:13;;;;;;;24.88;16.38;;;1.40;79.40;;;-0.65;85.30;96802.38;4998129;28;20045;-65
2021/11/24 01:17:39;;;;;;;26.80;17.65;;;1.50;79.50;;;-0.67;84.94;96790.50;4992478;28;20034;-65
2021/11/24 01:20:06;;;;;;;24.40;16.75;;;1.40;79.50;;;-0.69;84.98;96794.91;4992826;28;20136;-65
2021/11/24 01:22:31;;;;;;;25.25;17.02;;;1.40;79.40;;;-0.71;85.03;96795.00;4993002;28;20041;-65
2021/11/24 01:24:57;;;;;;;25.08;16.63;;;1.40;79.50;;;-0.69;85.22;96800.06;4993063;28;20034;-65
2021/11/24 01:27:23;;;;;;;25.88;15.57;;;1.40;79.50;;;-0.71;85.22;96789.84;5008833;28;20030;-65
2021/11/24 01:29:48;;;;;;;24.85;16.00;;;1.40;79.30;;;-0.73;85.11;96796.88;4991756;28;20033;-65
2021/11/24 01:32:14;;;;;;;22.92;15.35;;;1.30;79.20;;;-0.75;85.22;96788.41;5004144;28;20026;-64
2021/11/24 01:34:40;;;;;;;25.90;17.02;;;1.30;79.20;;;-0.78;85.26;96791.19;5006982;28;20391;-65
2021/11/24 01:37:05;;;;;;;25.38;16.92;;;1.30;79.60;;;-0.80;85.39;96789.66;4990786;28;20544;-65
2021/11/24 01:39:31;;;;;;;24.73;16.70;;;1.20;79.70;;;-0.81;85.39;96783.66;5000958;28;20568;-65
2021/11/24 01:41:57;;;;;;;25.73;16.73;;;1.20;79.80;;;-0.82;85.64;96783.75;4992029;28;20517;-65
2021/11/24 01:44:28;;;;;;;25.45;17.20;;;1.20;79.60;;;-0.85;85.80;96771.88;5008915;28;20505;-64
2021/11/24 01:47:04;;;;;;;25.40;16.67;;;1.20;79.50;;;-0.89;86.65;96770.44;5001875;28;20526;-65
2021/11/24 01:49:30;;;;;;;29.00;16.33;;;1.20;79.70;;;-0.90;85.36;96773.13;4987537;28;20046;-65
2021/11/24 01:51:56;;;;;;;24.65;16.88;;;1.10;80.10;;;-0.94;85.80;96769.88;4984498;28;20038;-65
2021/11/24 01:54:22;;;;;;;24.58;15.95;;;1.10;79.70;;;-0.95;85.62;96760.50;4989597;28;20050;-65
2021/11/24 01:56:48;;;;;;;25.02;16.80;;;1.10;79.90;;;-0.98;85.83;96760.69;5014080;23;20569;-65
2021/11/24 01:59:13;;;;;;;23.55;16.23;;;1.10;80.00;;;-0.98;85.99;96755.53;4964634;28;20217;-66
2021/11/24 02:01:41;;;;;;;26.13;16.83;;;1.10;80.00;;;-1.01;85.89;96751.41;4970781;28;20074;-66
2021/11/24 02:04:08;;;;;;;29.38;18.08;;;1.10;80.00;;;-1.03;85.98;96742.13;4974515;28;20042;-65
2021/11/24 02:06:34;;;;;;;25.10;16.35;;;1.10;80.10;;;-1.03;86.01;96736.94;4956419;28;20042;-65
2021/11/24 02:08:59;;;;;;;24.95;16.25;;;1.10;80.20;;;-1.01;85.80;96743.66;4988706;28;20038;-65
2021/11/24 02:11:26;;;;;;;26.10;16.38;;;1.10;80.10;;;-0.99;85.77;96738.38;4971955;28;20058;-66
2021/11/24 02:13:52;;;;;;;25.25;16.33;;;1.10;79.70;;;-1.02;85.79;96733.44;4988098;28;20650;-66
2021/11/24 02:16:17;;;;;;;27.13;15.88;;;1.00;79.50;;;-1.04;85.47;96724.97;4939562;28;20049;-65
2021/11/24 02:18:43;;;;;;;24.73;16.25;;;1.00;79.60;;;-1.04;85.39;96735.28;4972011;28;20811;-65
2021/11/24 02:21:10;;;;;;;22.25;15.35;;;1.00;79.30;;;-1.09;85.16;96727.03;4988298;28;20037;-66
2021/11/24 02:23:36;;;;;;;24.65;16.38;;;1.00;79.10;;;-1.12;85.63;96724.66;4956139;28;20049;-65
2021/11/24 02:26:02;;;;;;;25.20;16.13;;;1.00;79.30;;;-1.14;85.50;96734.22;4955928;28;20038;-66
2021/11/24 02:28:28;;;;;;;27.17;16.85;;;0.90;79.40;;;-1.13;85.52;96729.00;4951782;28;20034;-65
2021/11/24 02:30:54;;;;;;;23.02;16.10;;;0.90;79.40;;;-1.16;85.24;96728.34;4988029;28;20031;-66
2021/11/24 02:33:19;;;;;;;23.70;16.20;;;0.90;79.10;;;-1.20;85.17;96726.91;4989077;28;20588;-65
2021/11/24 02:35:45;;;;;;;23.23;16.13;;;0.80;79.00;;;-1.23;85.38;96721.03;4972082;28;20537;-65
2021/11/24 02:38:15;;;;;;;25.25;16.95;;;0.80;78.90;;;-1.28;85.51;96722.25;4987463;28;20490;-65
2021/11/24 02:40:41;;;;;;;23.33;15.95;;;0.60;79.80;;;-1.30;85.38;96717.19;4971247;28;20080;-65
2021/11/24 02:43:07;;;;;;;27.23;16.60;;;0.60;79.70;;;-1.35;85.28;96701.19;4988074;28;20556;-65
2021/11/24 02:45:33;;;;;;;25.75;16.40;;;0.70;79.90;;;-1.37;85.56;96703.03;4971818;28;20038;-66
2021/11/24 02:47:59;;;;;;;24.60;15.60;;;0.70;79.90;;;-1.38;85.41;96696.22;4987998;28;20441;-65
2021/11/24 02:50:24;;;;;;;25.90;17.02;;;0.70;79.30;;;-1.39;85.41;96684.25;4971926;28;20031;-65
2021/11/24 02:52:50;;;;;;;25.70;16.08;;;0.70;79.50;;;-1.39;86.11;96691.16;4955742;28;20042;-66
2021/11/24 02:55:16;;;;;;;24.38;16.35;;;0.60;79.30;;;-1.43;85.45;96687.94;4971567;28;20069;-66
2021/11/24 02:57:44;;;;;;;26.48;16.50;;;0.60;79.00;;;-1.45;85.30;96683.81;4988608;28;20240;-66
2021/11/24 03:00:16;;;;;;;23.63;15.25;;;0.60;78.90;;;-1.47;85.86;96683.94;4987519;28;20406;-67
2021/11/24 03:02:43;;;;;;;26.48;16.00;;;0.60;78.90;;;-1.47;85.23;96681.34;4971497;28;20030;-66
2021/11/24 03:05:09;;;;;;;22.88;15.18;;;0.50;78.90;;;-1.49;85.30;96680.63;4968582;28;20106;-67
2021/11/24 03:07:35;;;;;;;26.50;16.50;;;0.50;78.90;;;-1.52;85.40;96683.41;4973054;28;20046;-66
2021/11/24 03:10:02;;;;;;;26.48;16.27;;;0.50;78.80;;;-1.57;85.28;96680.31;4987164;28;20039;-67
2021/11/24 03:12:27;;;;;;;22.70;14.98;;;0.50;78.60;;;-1.59;85.09;96677.81;4987587;28;20044;-66
2021/11/24 03:14:53;;;;;;;24.13;15.60;;;0.50;78.80;;;-1.60;84.91;96680.47;4984596;28;20486;-66
2021/11/24 03:17:19;;;;;;;25.63;16.88;;;0.50;78.80;;;-1.64;85.35;96673.88;4936381;28;20043;-66
2021/11/24 03:19:46;;;;;;;25.35;17.05;;;0.40;79.00;;;-1.65;85.37;96667.06;4986239;28;20046;-69
2021/11/24 03:22:12;;;;;;;26.50;16.75;;;0.40;79.40;;;-1.66;85.91;96671.41;4986627;28;20117;-71
2021/11/24 03:24:38;;;;;;;25.65;17.23;;;0.40;79.60;;;-1.67;85.86;96662.00;4934497;28;20058;-65
2021/11/24 03:27:04;;;;;;;28.25;17.58;;;0.40;80.00;;;-1.66;86.15;96670.56;4987676;28;20053;-73
2021/11/24 03:29:29;;;;;;;27.83;16.85;;;0.40;79.80;;;-1.65;85.62;96672.22;4980875;28;20144;-68
2021/11/24 03:31:55;;;;;;;24.50;16.73;;;0.40;80.00;;;-1.65;85.95;96673.06;4971308;28;20038;-68
2021/11/24 03:34:21;;;;;;;26.45;17.75;;;0.50;79.70;;;-1.67;86.11;96674.09;4988266;28;20092;-68
2021/11/24 03:36:46;;;;;;;25.42;16.73;;;0.40;79.50;;;-1.67;85.34;96674.09;4952055;28;20058;-69
2021/11/24 03:39:12;;;;;;;26.65;17.27;;;0.40;79.10;;;-1.71;85.33;96676.03;4982495;28;20163;-68
2021/11/24 03:41:38;;;;;;;25.23;17.02;;;0.30;78.80;;;-1.73;85.29;96669.31;4995084;28;20421;-68
2021/11/24 03:44:04;;;;;;;26.10;16.75;;;0.30;79.10;;;-1.74;85.35;96663.34;4970445;28;20097;-68
2021/11/24 03:46:30;;;;;;;27.05;16.30;;;0.30;78.90;;;-1.76;84.85;96654.88;4972005;28;20086;-68
2021/11/24 03:48:56;;;;;;;25.38;15.70;;;0.20;78.80;;;-1.78;85.32;96650.75;4971980;28;20042;-67
2021/11/24 03:51:21;;;;;;;27.45;16.63;;;0.20;79.00;;;-1.86;85.44;96643.50;4990768;28;20085;-67
2021/11/24 03:53:48;;;;;;;23.77;15.65;;;0.20;79.30;;;-1.83;85.66;96652.78;4992393;28;20042;-67
2021/11/24 03:56:14;;;;;;;24.20;16.10;;;0.20;79.30;;;-1.87;85.80;96647.00;4975625;28;20049;-67
2021/11/24 03:58:40;;;;;;;28.02;16.90;;;0.20;79.60;;;-1.89;85.67;96639.38;4956360;28;20038;-68
2021/11/24 04:01:06;;;;;;;27.10;16.00;;;0.20;79.60;;;-1.94;85.98;96638.84;4988096;28;20038;-68
2021/11/24 04:03:32;;;;;;;24.60;16.48;;;0.20;79.50;;;-1.93;85.98;96634.50;4960242;28;20088;-67
2021/11/24 04:05:58;;;;;;;26.30;16.42;;;0.20;79.40;;;-1.91;85.70;96636.06;4972017;28;20109;-67
2021/11/24 04:08:23;;;;;;;23.92;16.48;;;0.20;79.40;;;-1.91;85.67;96637.81;4989495;28;20506;-67
2021/11/24 04:10:49;;;;;;;25.65;16.85;;;0.20;79.40;;;-1.93;85.65;96622.44;4988848;28;20035;-68
2021/11/24 04:13:15;;;;;;;22.35;15.27;;;0.20;79.20;;;-1.95;85.64;96626.06;4991265;28;20080;-68
2021/11/24 04:15:41;;;;;;;23.80;15.52;;;0.20;79.10;;;-1.96;85.40;96627.81;4974168;28;20477;-68
2021/11/24 04:18:06;;;;;;;25.58;16.52;;;0.10;79.10;;;-1.97;85.72;96636.47;4991071;28;20044;-67
2021/11/24 04:20:32;;;;;;;26.10;16.58;;;0.10;79.40;;;-1.96;85.77;96632.16;4990827;28;20077;-68
2021/11/24 04:22:58;;;;;;;24.33;16.15;;;0.20;79.50;;;-1.96;86.13;96630.38;4998613;28;20046;-68
2021/11/24 04:25:24;;;;;;;28.27;16.98;;;0.10;79.70;;;-1.94;86.07;96635.44;4992409;28;20120;-67
2021/11/24 04:27:50;;;;;;;26.77;16.80;;;0.20;80.10;;;-1.95;86.33;96644.94;4974674;28;20034;-68
2021/11/24 04:30:17;;;;;;;26.83;17.33;;;0.20;80.10;;;-1.95;86.38;96644.94;4957692;28;20045;-67
2021/11/24 04:32:43;;;;;;;24.85;17.10;;;0.20;79.80;;;-1.94;86.42;96638.84;4985314;28;20378;-67
2021/11/24 04:35:09;;;;;;;26.30;17.13;;;0.10;79.70;;;-1.98;86.14;96634.81;4991176;28;20041;-68
2021/11/24 04:37:35;;;;;;;27.30;17.02;;;0.20;79.40;;;-1.97;86.73;96641.63;4957918;28;20033;-68
2021/11/24 04:40:00;;;;;;;28.05;17.27;;;0.20;79.40;;;-1.91;86.29;96645.56;4974184;28;20477;-68
2021/11/24 04:42:26;;;;;;;33.47;17.65;;;0.20;79.40;;;-1.92;86.50;96644.72;4973225;28;20031;-69
2021/11/24 04:44:52;;;;;;;33.13;18.88;;;0.30;79.90;;;-1.90;87.06;96639.47;4973477;28;20062;-68
2021/11/24 04:47:18;;;;;;;31.17;18.60;;;0.30;80.40;;;-1.88;87.22;96648.75;4989593;28;20038;-65
2021/11/24 04:49:44;;;;;;;34.05;18.90;;;0.40;80.40;;;-1.84;87.16;96651.97;5003416;28;20038;-65
2021/11/24 04:52:10;;;;;;;35.58;20.00;;;0.40;80.30;;;-1.79;87.43;96643.94;4968269;28;21096;-65
2021/11/24 04:54:35;;;;;;;33.00;19.73;;;0.50;80.30;;;-1.76;87.54;96648.91;5010948;28;20034;-65
2021/11/24 04:57:01;;;;;;;37.33;19.67;;;0.50;80.50;;;-1.74;88.25;96647.03;5005731;28;20104;-65
2021/11/24 04:59:27;;;;;;;37.15;20.92;;;0.50;80.80;;;-1.70;88.16;96648.50;5000647;28;20080;-65
2021/11/24 05:01:53;;;;;;;51.38;29.73;;;0.50;81.10;;;-1.67;88.66;96654.28;4973585;28;20418;-65
2021/11/24 05:04:21;;;;;;;61.80;30.48;;;0.60;81.20;;;-1.67;88.50;96635.41;4990196;28;20046;-65
2021/11/24 05:06:47;;;;;;;48.20;26.92;;;0.60;81.10;;;-1.63;88.64;96636.84;4974386;28;20120;-64
2021/11/24 05:09:13;;;;;;;36.33;21.02;;;0.60;81.40;;;-1.60;88.73;96636.63;4977330;28;20108;-65
2021/11/24 05:11:39;;;;;;;32.70;19.70;;;0.60;81.40;;;-1.56;88.60;96640.69;4973858;28;20491;-65
2021/11/24 05:14:06;;;;;;;31.88;18.85;;;0.60;81.30;;;-1.52;88.87;96646.47;4980911;28;20564;-65
2021/11/24 05:16:37;;;;;;;32.95;19.55;;;0.70;81.10;;;-1.51;88.95;96643.78;4974164;28;20108;-65
2021/11/24 05:19:03;;;;;;;32.10;18.63;;;0.70;81.10;;;-1.50;89.01;96634.28;4974331;28;20432;-65
2021/11/24 05:23:57;;;;;;;34.40;20.23;;;0.70;80.80;;;-1.46;88.72;96631.41;4989256;28;20097;-65
2021/11/24 05:26:23;;;;;;;32.92;20.05;;;0.70;80.70;;;-1.48;88.94;96625.53;4990098;28;20034;-65
2021/11/24 05:28:49;;;;;;;32.63;19.45;;;0.80;81.00;;;-1.44;89.20;96634.69;4973398;28;20057;-65
2021/11/24 05:31:15;;;;;;;33.97;20.27;;;0.70;80.90;;;-1.43;88.71;96633.78;4989953;28;20034;-64
2021/11/24 05:33:43;;;;;;;31.95;20.00;;;0.80;81.00;;;-1.42;88.82;96625.09;4957339;28;20050;-64
2021/11/24 05:36:08;;;;;;;30.60;19.55;;;0.90;81.00;;;-1.39;88.96;96617.16;4957469;28;20529;-64
2021/11/24 05:38:34;;;;;;;32.10;19.45;;;0.90;80.90;;;-1.36;89.07;96613.53;4993528;28;20038;-64
2021/11/24 05:41:00;;;;;;;32.92;19.02;;;0.90;80.90;;;-1.29;88.90;96628.53;4993812;28;20378;-64
2021/11/24 05:43:28;;;;;;;30.63;19.38;;;1.00;80.70;;;-1.26;89.23;96622.31;4979172;28;20073;-64
2021/11/24 05:48:21;;;;;;;34.45;20.00;;;1.00;80.50;;;-1.24;89.32;96610.13;4958250;28;20034;-64
2021/11/24 05:50:47;;;;;;;66.90;43.08;;;1.00;80.50;;;-1.25;89.22;96614.47;4973970;28;20402;-64
2021/11/24 05:53:15;;;;;;;46.75;27.80;;;1.00;81.10;;;-1.18;89.33;96614.06;4974007;28;20520;-64
2021/11/24 05:55:42;;;;;;;51.40;30.67;;;1.10;80.90;;;-1.14;89.42;96625.81;4973711;28;20054;-64
2021/11/24 05:58:09;;;;;;;42.88;25.02;;;1.10;81.10;;;-1.13;89.46;96617.13;4957341;28;20593;-65
2021/11/24 06:00:35;;;;;;;50.17;24.77;;;1.10;81.00;;;-1.13;89.53;96609.41;4970515;28;20031;-64
2021/11/24 06:03:01;;;;;;;49.60;24.15;;;1.10;81.00;;;-1.14;89.67;96615.50;4970319;28;20093;-64
2021/11/24 06:05:27;;;;;;;49.83;25.52;;;1.10;81.40;;;-1.17;89.92;96610.53;4954425;28;20078;-64
2021/11/24 06:07:53;;;;;;;50.17;23.92;;;1.00;81.90;;;-1.17;89.98;96610.53;4969956;28;20498;-65
2021/11/24 06:10:18;;;;;;;56.38;24.38;;;1.00;81.70;;;-1.17;90.05;96615.72;4970558;28;20109;-64
2021/11/24 06:12:44;;;;;;;53.70;26.10;;;1.00;81.80;;;-1.17;90.28;96610.53;5003938;28;20034;-64
2021/11/24 06:15:14;;;;;;;45.50;22.60;;;1.00;82.00;;;-1.17;90.23;96616.53;5005489;28;20039;-64
2021/11/24 06:17:44;;;;;;;41.10;22.10;;;1.00;81.70;;;-1.21;90.23;96609.09;4989513;28;20090;-64
2021/11/24 06:20:11;;;;;;;44.90;22.35;;;0.90;81.70;;;-1.27;90.37;96610.34;5005285;28;20408;-64
2021/11/24 06:22:37;;;;;;;49.35;24.23;;;0.90;81.80;;;-1.25;90.51;96619.63;4988895;28;20026;-64
2021/11/24 06:25:04;;;;;;;51.17;25.65;;;0.90;82.40;;;-1.20;90.51;96613.34;4989665;28;20069;-65
2021/11/24 06:27:30;;;;;;;50.33;25.35;;;1.00;82.40;;;-1.20;90.63;96621.06;4989292;28;20053;-64
2021/11/24 06:29:56;;;;;;;50.88;24.42;;;1.00;82.40;;;-1.20;90.36;96621.06;4989159;28;20565;-65
2021/11/24 06:32:21;;;;;;;46.00;23.02;;;0.90;82.20;;;-1.18;90.67;96626.97;5005550;28;20510;-64
2021/11/24 06:34:48;;;;;;;45.05;23.75;;;0.90;82.10;;;-1.24;90.40;96626.44;4989057;28;20041;-64
2021/11/24 06:37:14;;;;;;;41.95;22.50;;;0.90;82.20;;;-1.24;90.84;96628.22;4989306;28;20457;-64
2021/11/24 06:39:40;;;;;;;45.92;22.45;;;1.00;82.00;;;-1.25;90.17;96624.81;4957255;28;20502;-64
2021/11/24 06:42:05;;;;;;;47.33;22.92;;;0.90;81.80;;;-1.28;90.65;96629.34;4972846;28;20532;-64
2021/11/24 06:44:31;;;;;;;40.60;22.58;;;0.90;81.90;;;-1.26;90.67;96633.47;4972978;28;20038;-64
2021/11/24 06:46:57;;;;;;;41.90;21.27;;;0.90;82.00;;;-1.24;90.58;96636.78;4972998;28;20070;-65
2021/11/24 06:49:23;;;;;;;37.60;19.38;;;0.90;81.70;;;-1.29;90.10;96628.53;4989446;28;20065;-64
2021/11/24 06:51:48;;;;;;;32.13;19.23;;;0.90;81.70;;;-1.30;90.74;96633.78;4989306;28;20608;-64
2021/11/24 06:54:17;;;;;;;33.00;19.17;;;0.90;81.70;;;-1.33;90.03;96632.25;4956323;28;20117;-65
2021/11/24 06:56:46;;;;;;;31.20;17.98;;;0.80;81.70;;;-1.35;90.38;96644.44;4973130;28;20042;-64
2021/11/24 06:59:12;;;;;;;28.35;17.48;;;0.80;81.50;;;-1.41;90.30;96644.81;4973230;28;20517;-64
2021/11/24 07:01:38;;;;;;;28.55;15.93;;;0.70;81.40;;;-1.46;89.94;96646.88;4979219;28;20034;-64
2021/11/24 07:04:04;;;;;;;28.63;16.25;;;0.50;81.20;;;-1.53;90.17;96644.81;4972407;28;20049;-64
2021/11/24 07:06:30;;;;;;;30.60;16.13;;;0.50;81.80;;;-1.57;90.33;96641.63;4988996;28;20026;-63
2021/11/24 07:08:56;;;;;;;32.33;17.05;;;0.50;81.80;;;-1.61;90.44;96632.41;4973143;28;20061;-64
2021/11/24 07:11:23;;;;;;;41.05;23.80;;;0.50;82.00;;;-1.57;90.51;96633.88;4989272;28;20031;-63
2021/11/24 07:13:49;;;;;;;32.08;18.35;;;0.60;82.00;;;-1.60;90.26;96636.63;4988759;28;20045;-63
2021/11/24 07:16:15;;;;;;;40.80;20.27;;;0.50;81.90;;;-1.60;90.72;96639.22;4972433;28;20034;-63
2021/11/24 07:18:41;;;;;;;30.60;17.10;;;0.60;82.20;;;-1.57;90.49;96644.19;4990116;28;20034;-64
2021/11/24 07:21:06;;;;;;;29.85;16.65;;;0.60;82.00;;;-1.58;90.87;96638.22;4973026;28;20026;-64
2021/11/24 07:23:32;;;;;;;30.83;17.38;;;0.60;82.00;;;-1.57;90.70;96639.03;4972560;28;20039;-63
2021/11/24 07:25:58;;;;;;;29.63;17.23;;;0.60;81.90;;;-1.57;90.59;96644.19;4990198;28;20398;-64
2021/11/24 07:28:23;;;;;;;28.95;17.10;;;0.60;81.80;;;-1.57;90.98;96644.19;4994189;28;20401;-63
2021/11/24 07:30:49;;;;;;;33.65;17.80;;;0.60;82.10;;;-1.54;90.83;96641.41;4992519;28;20042;-63
2021/11/24 07:33:15;;;;;;;29.13;16.85;;;0.70;82.20;;;-1.52;90.96;96642.13;4992649;28;20034;-63
2021/11/24 07:35:41;;;;;;;28.50;17.10;;;0.70;81.80;;;-1.47;90.88;96645.22;4992186;28;20546;-64
2021/11/24 07:38:06;;;;;;;28.42;15.98;;;0.80;81.80;;;-1.45;90.62;96637.38;4993398;28;20506;-64
2021/11/24 07:40:32;;;;;;;25.25;15.70;;;0.80;81.40;;;-1.43;90.52;96638.94;4992589;28;20046;-64
2021/11/24 07:42:58;;;;;;;25.80;16.55;;;0.80;81.00;;;-1.39;90.25;96642.97;4991984;28;20089;-64
2021/11/24 07:45:23;;;;;;;30.77;17.00;;;0.90;81.20;;;-1.36;90.83;96634.19;4992569;28;20049;-64
2021/11/24 07:47:49;;;;;;;29.50;17.05;;;0.90;81.40;;;-1.36;90.67;96631.59;4976229;28;20572;-63
2021/11/24 07:50:15;;;;;;;29.80;17.77;;;0.90;81.50;;;-1.35;91.02;96634.09;4975728;28;20054;-64
2021/11/24 07:52:41;;;;;;;33.67;17.38;;;0.90;81.50;;;-1.36;90.97;96632.44;4991185;28;20086;-64
2021/11/24 07:55:07;;;;;;;28.77;17.67;;;0.90;81.60;;;-1.37;90.91;96630.78;4976365;28;20047;-64
2021/11/24 07:57:33;;;;;;;29.65;17.70;;;0.90;81.90;;;-1.36;91.21;96632.44;4992039;28;20359;-64
2021/11/24 07:59:58;;;;;;;40.38;18.35;;;0.90;82.00;;;-1.31;91.09;96629.56;4992654;28;20026;-64
2021/11/24 08:02:24;;;;;;;26.60;17.13;;;0.90;81.80;;;-1.31;91.22;96621.81;4992014;28;20035;-64
2021/11/24 08:04:51;;;;;;;29.10;17.25;;;1.00;82.10;;;-1.29;91.55;96633.69;4993214;28;20043;-64
2021/11/24 08:07:17;;;;;;;31.58;17.88;;;1.00;82.10;;;-1.23;91.37;96628.09;4992167;28;20521;-64
2021/11/24 08:09:42;;;;;;;27.35;17.45;;;1.10;81.80;;;-1.20;91.23;96626.25;4975699;28;20042;-64
2021/11/24 08:12:09;;;;;;;25.98;16.23;;;1.10;81.80;;;-1.17;91.28;96620.88;4959396;28;20026;-64
2021/11/24 08:14:35;;;;;;;26.92;16.77;;;1.10;81.70;;;-1.13;91.39;96624.88;4975441;28;20034;-64
2021/11/24 08:17:01;;;;;;;28.58;17.38;;;1.10;81.50;;;-1.13;91.58;96617.13;4993309;28;20509;-64
2021/11/24 08:19:26;;;;;;;27.25;16.75;;;1.10;81.80;;;-1.09;91.73;96628.94;4976066;28;20505;-64
2021/11/24 08:21:52;;;;;;;26.17;17.15;;;1.10;81.80;;;-1.10;91.57;96617.78;4992554;28;20042;-64
2021/11/24 08:24:18;;;;;;;29.58;17.83;;;1.20;81.80;;;-1.07;91.66;96616.75;4975327;28;20042;-64
2021/11/24 08:26:44;;;;;;;28.23;17.20;;;1.20;81.90;;;-1.04;91.37;96606.22;4991597;28;20035;-64
2021/11/24 08:29:10;;;;;;;31.33;18.02;;;1.20;81.60;;;-1.07;91.48;96591.75;4956071;28;20039;-64
2021/11/24 08:31:37;;;;;;;29.70;18.30;;;1.30;81.70;;;-0.99;91.24;96604.13;4972072;28;20031;-64
2021/11/24 08:34:03;;;;;;;27.58;17.33;;;1.30;81.50;;;-0.91;91.84;96607.00;4989797;28;20522;-64
2021/11/24 08:36:30;;;;;;;27.15;17.88;;;1.40;81.70;;;-0.87;91.65;96598.13;4991393;28;20055;-64
2021/11/24 08:38:56;;;;;;;28.58;18.05;;;1.40;81.30;;;-0.85;91.33;96598.84;4974959;28;20061;-64
2021/11/24 08:41:21;;;;;;;26.48;17.50;;;1.50;81.30;;;-0.82;91.32;96601.22;4991639;28;20034;-64
2021/11/24 08:43:47;;;;;;;27.85;18.67;;;1.50;81.10;;;-0.76;91.44;96595.63;4990749;28;20422;-64
2021/11/24 08:46:13;;;;;;;26.15;16.30;;;1.60;81.20;;;-0.72;91.36;96594.47;4990930;28;20030;-64
2021/11/24 08:48:38;;;;;;;25.77;16.98;;;1.70;81.20;;;-0.69;91.35;96589.06;4959100;28;20038;-64
2021/11/24 08:51:05;;;;;;;28.90;17.60;;;1.60;80.50;;;-0.64;91.47;96588.78;4992673;28;20033;-64
2021/11/24 08:53:30;;;;;;;24.60;15.80;;;1.70;80.80;;;-0.61;90.67;96588.56;4974828;28;20043;-64
2021/11/24 08:55:56;;;;;;;31.08;17.58;;;1.70;80.50;;;-0.60;91.15;96586.78;4974399;28;20042;-64
2021/11/24 08:58:22;;;;;;;26.92;16.17;;;1.80;80.30;;;-0.58;91.01;96567.66;4976846;28;20042;-64
2021/11/24 09:00:48;;;;;;;30.80;16.05;;;1.70;80.40;;;-0.58;90.76;96578.00;4974610;28;20042;-64
2021/11/24 09:03:13;;;;;;;28.45;16.63;;;1.60;80.30;;;-0.62;90.53;96574.00;4990879;28;20084;-65
2021/11/24 09:05:39;;;;;;;28.92;16.23;;;1.60;80.60;;;-0.60;90.58;96579.88;4974580;28;20568;-63
2021/11/24 09:08:05;;;;;;;30.98;17.75;;;1.60;80.50;;;-0.61;90.85;96573.06;4974267;28;20037;-64
2021/11/24 09:10:31;;;;;;;31.35;17.73;;;1.60;81.10;;;-0.63;90.78;96568.00;4958583;28;20038;-64
2021/11/24 09:12:58;;;;;;;32.17;16.95;;;1.50;81.10;;;-0.63;91.16;96568.00;4974141;28;20117;-63
2021/11/24 09:15:24;;;;;;;30.63;17.50;;;1.60;81.40;;;-0.60;90.77;96568.72;4958566;28;20026;-63
2021/11/24 09:17:49;;;;;;;35.53;18.35;;;1.70;81.30;;;-0.55;91.56;96561.44;4974534;28;20509;-64
2021/11/24 09:20:15;;;;;;;30.63;17.42;;;1.80;81.20;;;-0.50;90.72;96569.69;4990157;28;20391;-63
2021/11/24 09:22:44;;;;;;;29.15;16.65;;;1.80;80.60;;;-0.50;90.84;96560.19;4973773;28;20044;-63
2021/11/24 09:25:13;;;;;;;29.25;16.85;;;1.90;80.50;;;-0.43;91.18;96570.94;4974609;28;20046;-63
2021/11/24 09:27:55;;;;;;;29.05;16.85;;;1.90;80.30;;;-0.43;91.28;96565.75;4991584;28;20529;-63
2021/11/24 09:30:21;;;;;;;28.42;16.38;;;2.00;80.30;;;-0.38;90.71;96563.66;4962954;28;20531;-63
2021/11/24 09:32:47;;;;;;;29.00;16.65;;;2.00;80.10;;;-0.38;91.10;96559.31;4974055;28;20038;-63
2021/11/24 09:35:13;;;;;;;31.60;16.77;;;1.90;79.90;;;-0.36;90.47;96562.63;4942072;28;20033;-63
2021/11/24 09:37:39;;;;;;;30.23;16.55;;;2.10;79.90;;;-0.32;90.18;96558.03;4957768;28;20069;-63
2021/11/24 09:40:06;;;;;;;29.83;17.42;;;2.00;79.80;;;-0.28;89.92;96559.47;4990001;28;20100;-64
2021/11/24 09:42:32;;;;;;;29.33;17.48;;;2.10;79.70;;;-0.31;89.92;96560.50;4974130;28;20109;-63
2021/11/24 09:44:58;;;;;;;26.98;15.90;;;2.00;79.50;;;-0.30;90.25;96551.00;4974214;28;20403;-63
2021/11/24 09:47:25;;;;;;;31.92;16.30;;;2.00;79.80;;;-0.28;90.11;96543.97;4958371;28;20038;-63
2021/11/24 09:49:54;;;;;;;29.83;16.95;;;2.10;79.80;;;-0.23;90.96;96547.03;4973104;28;20518;-63
2021/11/24 09:52:20;;;;;;;29.02;16.33;;;2.10;79.90;;;-0.22;90.12;96547.88;4942111;28;20058;-63
2021/11/24 09:54:49;;;;;;;29.52;16.20;;;2.10;79.50;;;-0.20;90.31;96546.81;4989885;28;20049;-63
2021/11/24 09:57:17;;;;;;;31.75;18.38;;;2.10;79.60;;;-0.19;90.04;96535.56;4989995;28;20035;-63
2021/11/24 09:59:44;;;;;;;34.10;20.00;;;2.10;79.70;;;-0.18;90.06;96534.59;4989868;28;20065;-63
2021/11/24 10:02:11;;;;;;;34.40;19.25;;;2.20;79.70;;;-0.12;90.24;96525.56;4989385;28;20034;-64
2021/11/24 10:04:37;;;;;;;36.95;19.52;;;2.30;79.60;;;-0.06;90.47;96532.88;4974022;28;20093;-63
2021/11/24 10:07:03;;;;;;;32.15;18.45;;;2.40;79.50;;;-0.05;90.20;96508.66;4990838;28;20042;-63
2021/11/24 10:09:28;;;;;;;31.98;17.63;;;2.40;79.50;;;0.01;90.10;96515.16;4957783;28;20458;-63
2021/11/24 10:11:54;;;;;;;33.38;19.02;;;2.40;79.30;;;0.02;90.14;96503.88;4989176;28;20039;-64
2021/11/24 10:14:20;;;;;;;35.15;19.58;;;2.50;79.20;;;0.09;90.43;96502.47;4973294;28;20530;-63